Terminal Aerodrome Forecast
Issued by NWS

Home | Current Version | Previous Version | Text Only | Print | Product List | Glossary On
Versions: 1 2 3 4 5 6 7 8 9 10 11 12 13 14 15 16 17 18 19 20
000
FTUS43 KEAX 232300
TAFMKC
TAF
KMKC 232333Z 2400/2424 30007KT P6SM OVC013
     FM240500 31009KT 5SM BR OVC009
      TEMPO 2405/2409 -RA BR
     FM240900 33009KT 3SM -RASN BR OVC008
     FM241600 32010KT P6SM OVC015
     FM242000 32013KT P6SM OVC024=

USA.gov is the U.S. government's official web portal to all federal, state and local government web resources and services.